sensor_id;sensor_type;location;lat;lon;timestamp;P1;durP1;ratioP1;P2;durP2;ratioP2
16862;SDS011;52193;48.216;-1.698;2024-03-07T00:02:09;4.50;;;3.53;;
16862;SDS011;52193;48.216;-1.698;2024-03-07T00:04:37;5.22;;;3.90;;
16862;SDS011;52193;48.216;-1.698;2024-03-07T00:07:03;4.60;;;3.60;;
16862;SDS011;52193;48.216;-1.698;2024-03-07T00:09:31;4.72;;;3.30;;
16862;SDS011;52193;48.216;-1.698;2024-03-07T00:11:59;5.78;;;3.53;;
16862;SDS011;52193;48.216;-1.698;2024-03-07T00:14:26;6.88;;;3.92;;
16862;SDS011;52193;48.216;-1.698;2024-03-07T00:16:54;5.10;;;3.63;;
16862;SDS011;52193;48.216;-1.698;2024-03-07T00:19:22;6.85;;;3.53;;
16862;SDS011;52193;48.216;-1.698;2024-03-07T00:21:51;5.88;;;3.38;;
16862;SDS011;52193;48.216;-1.698;2024-03-07T00:24:18;4.50;;;3.28;;
16862;SDS011;52193;48.216;-1.698;2024-03-07T00:26:45;8.57;;;4.15;;
16862;SDS011;52193;48.216;-1.698;2024-03-07T00:29:15;6.25;;;3.55;;
16862;SDS011;52193;48.216;-1.698;2024-03-07T00:31:43;5.32;;;3.58;;
16862;SDS011;52193;48.216;-1.698;2024-03-07T00:34:10;4.15;;;3.38;;
16862;SDS011;52193;48.216;-1.698;2024-03-07T00:36:40;6.47;;;3.65;;
16862;SDS011;52193;48.216;-1.698;2024-03-07T00:39:07;4.80;;;3.45;;
16862;SDS011;52193;48.216;-1.698;2024-03-07T00:41:36;6.40;;;3.20;;
16862;SDS011;52193;48.216;-1.698;2024-03-07T00:44:04;6.72;;;3.22;;
16862;SDS011;52193;48.216;-1.698;2024-03-07T00:46:31;4.75;;;3.40;;
16862;SDS011;52193;48.216;-1.698;2024-03-07T00:48:58;5.38;;;3.20;;
16862;SDS011;52193;48.216;-1.698;2024-03-07T00:51:25;4.93;;;3.50;;
16862;SDS011;52193;48.216;-1.698;2024-03-07T00:53:53;5.95;;;3.33;;
16862;SDS011;52193;48.216;-1.698;2024-03-07T00:56:20;5.32;;;3.60;;
16862;SDS011;52193;48.216;-1.698;2024-03-07T00:58:47;4.55;;;3.20;;
16862;SDS011;52193;48.216;-1.698;2024-03-07T01:01:14;5.57;;;3.55;;
16862;SDS011;52193;48.216;-1.698;2024-03-07T01:03:42;4.85;;;3.38;;
16862;SDS011;52193;48.216;-1.698;2024-03-07T01:06:09;3.97;;;3.38;;
16862;SDS011;52193;48.216;-1.698;2024-03-07T01:08:36;7.40;;;3.80;;
16862;SDS011;52193;48.216;-1.698;2024-03-07T01:11:05;6.70;;;3.90;;
16862;SDS011;52193;48.216;-1.698;2024-03-07T01:13:34;4.15;;;3.40;;
16862;SDS011;52193;48.216;-1.698;2024-03-07T01:16:02;5.05;;;3.80;;
16862;SDS011;52193;48.216;-1.698;2024-03-07T01:18:29;5.38;;;3.65;;
16862;SDS011;52193;48.216;-1.698;2024-03-07T01:20:56;4.95;;;3.85;;
16862;SDS011;52193;48.216;-1.698;2024-03-07T01:23:23;4.47;;;3.70;;
16862;SDS011;52193;48.216;-1.698;2024-03-07T01:25:50;6.38;;;3.70;;
16862;SDS011;52193;48.216;-1.698;2024-03-07T01:28:18;6.07;;;3.95;;
16862;SDS011;52193;48.216;-1.698;2024-03-07T01:30:47;4.78;;;3.70;;
16862;SDS011;52193;48.216;-1.698;2024-03-07T01:33:14;6.03;;;3.63;;
16862;SDS011;52193;48.216;-1.698;2024-03-07T01:35:41;5.05;;;3.80;;
16862;SDS011;52193;48.216;-1.698;2024-03-07T01:38:08;4.57;;;3.85;;
16862;SDS011;52193;48.216;-1.698;2024-03-07T01:40:36;5.97;;;3.80;;
16862;SDS011;52193;48.216;-1.698;2024-03-07T01:43:03;5.20;;;3.70;;
16862;SDS011;52193;48.216;-1.698;2024-03-07T01:45:32;9.43;;;3.95;;
16862;SDS011;52193;48.216;-1.698;2024-03-07T01:47:59;5.88;;;3.75;;
16862;SDS011;52193;48.216;-1.698;2024-03-07T01:50:26;5.55;;;3.83;;
16862;SDS011;52193;48.216;-1.698;2024-03-07T01:52:53;6.55;;;3.92;;
16862;SDS011;52193;48.216;-1.698;2024-03-07T01:55:21;6.20;;;4.00;;
16862;SDS011;52193;48.216;-1.698;2024-03-07T01:57:48;4.68;;;3.50;;
16862;SDS011;52193;48.216;-1.698;2024-03-07T02:00:16;6.05;;;3.55;;
16862;SDS011;52193;48.216;-1.698;2024-03-07T02:02:45;4.95;;;3.60;;
16862;SDS011;52193;48.216;-1.698;2024-03-07T02:05:12;4.38;;;3.65;;
16862;SDS011;52193;48.216;-1.698;2024-03-07T02:07:39;5.75;;;3.97;;
16862;SDS011;52193;48.216;-1.698;2024-03-07T02:10:06;4.65;;;4.10;;
16862;SDS011;52193;48.216;-1.698;2024-03-07T02:12:35;5.43;;;3.38;;
16862;SDS011;52193;48.216;-1.698;2024-03-07T02:15:02;5.00;;;3.55;;
16862;SDS011;52193;48.216;-1.698;2024-03-07T02:17:29;5.85;;;4.03;;
16862;SDS011;52193;48.216;-1.698;2024-03-07T02:19:58;6.45;;;3.90;;
16862;SDS011;52193;48.216;-1.698;2024-03-07T02:22:26;5.50;;;4.28;;
16862;SDS011;52193;48.216;-1.698;2024-03-07T02:24:53;3.88;;;3.22;;
16862;SDS011;52193;48.216;-1.698;2024-03-07T02:27:20;5.47;;;3.70;;
16862;SDS011;52193;48.216;-1.698;2024-03-07T02:29:47;5.38;;;3.60;;
16862;SDS011;52193;48.216;-1.698;2024-03-07T02:32:16;5.75;;;3.78;;
16862;SDS011;52193;48.216;-1.698;2024-03-07T02:34:43;6.40;;;3.50;;
16862;SDS011;52193;48.216;-1.698;2024-03-07T02:37:09;7.00;;;4.25;;
16862;SDS011;52193;48.216;-1.698;2024-03-07T02:39:38;4.07;;;3.42;;
16862;SDS011;52193;48.216;-1.698;2024-03-07T02:42:05;5.80;;;3.60;;
16862;SDS011;52193;48.216;-1.698;2024-03-07T02:44:32;7.40;;;3.60;;
16862;SDS011;52193;48.216;-1.698;2024-03-07T02:46:59;6.32;;;4.30;;
16862;SDS011;52193;48.216;-1.698;2024-03-07T02:49:29;6.55;;;4.05;;
16862;SDS011;52193;48.216;-1.698;2024-03-07T02:51:55;7.32;;;4.00;;
16862;SDS011;52193;48.216;-1.698;2024-03-07T02:54:22;7.72;;;4.40;;
16862;SDS011;52193;48.216;-1.698;2024-03-07T02:56:51;6.88;;;4.05;;
16862;SDS011;52193;48.216;-1.698;2024-03-07T02:59:17;4.57;;;3.90;;
16862;SDS011;52193;48.216;-1.698;2024-03-07T03:01:44;4.78;;;4.30;;
16862;SDS011;52193;48.216;-1.698;2024-03-07T03:04:11;7.55;;;4.20;;
16862;SDS011;52193;48.216;-1.698;2024-03-07T03:06:38;6.18;;;4.05;;
16862;SDS011;52193;48.216;-1.698;2024-03-07T03:09:05;5.50;;;4.05;;
16862;SDS011;52193;48.216;-1.698;2024-03-07T03:11:38;4.95;;;3.80;;
16862;SDS011;52193;48.216;-1.698;2024-03-07T03:14:06;6.25;;;4.20;;
16862;SDS011;52193;48.216;-1.698;2024-03-07T03:16:35;5.82;;;4.10;;
16862;SDS011;52193;48.216;-1.698;2024-03-07T03:19:02;6.82;;;3.97;;
16862;SDS011;52193;48.216;-1.698;2024-03-07T03:21:30;5.78;;;3.60;;
16862;SDS011;52193;48.216;-1.698;2024-03-07T03:23:58;6.68;;;4.10;;
16862;SDS011;52193;48.216;-1.698;2024-03-07T03:26:27;5.10;;;3.90;;
16862;SDS011;52193;48.216;-1.698;2024-03-07T03:28:56;5.35;;;3.72;;
16862;SDS011;52193;48.216;-1.698;2024-03-07T03:31:24;4.57;;;3.65;;
16862;SDS011;52193;48.216;-1.698;2024-03-07T03:33:51;7.25;;;4.20;;
16862;SDS011;52193;48.216;-1.698;2024-03-07T03:36:18;6.50;;;4.78;;
16862;SDS011;52193;48.216;-1.698;2024-03-07T03:38:45;7.03;;;4.13;;
16862;SDS011;52193;48.216;-1.698;2024-03-07T03:41:14;7.65;;;4.00;;
16862;SDS011;52193;48.216;-1.698;2024-03-07T03:43:41;9.18;;;4.53;;
16862;SDS011;52193;48.216;-1.698;2024-03-07T03:46:09;5.22;;;3.95;;
16862;SDS011;52193;48.216;-1.698;2024-03-07T03:48:38;5.72;;;4.10;;
16862;SDS011;52193;48.216;-1.698;2024-03-07T03:51:06;6.63;;;4.25;;
16862;SDS011;52193;48.216;-1.698;2024-03-07T03:53:34;7.93;;;3.83;;
16862;SDS011;52193;48.216;-1.698;2024-03-07T03:56:01;4.25;;;3.85;;
16862;SDS011;52193;48.216;-1.698;2024-03-07T03:58:31;6.15;;;3.80;;
16862;SDS011;52193;48.216;-1.698;2024-03-07T04:00:58;4.35;;;3.83;;
16862;SDS011;52193;48.216;-1.698;2024-03-07T04:03:25;6.10;;;4.13;;
16862;SDS011;52193;48.216;-1.698;2024-03-07T04:05:53;6.05;;;4.00;;
16862;SDS011;52193;48.216;-1.698;2024-03-07T04:08:21;5.15;;;4.28;;
16862;SDS011;52193;48.216;-1.698;2024-03-07T04:10:48;6.85;;;4.28;;
16862;SDS011;52193;48.216;-1.698;2024-03-07T04:13:15;8.45;;;4.20;;
16862;SDS011;52193;48.216;-1.698;2024-03-07T04:15:41;5.35;;;3.80;;
16862;SDS011;52193;48.216;-1.698;2024-03-07T04:18:08;5.43;;;3.92;;
16862;SDS011;52193;48.216;-1.698;2024-03-07T04:20:35;6.05;;;4.18;;
16862;SDS011;52193;48.216;-1.698;2024-03-07T04:23:04;6.35;;;4.05;;
16862;SDS011;52193;48.216;-1.698;2024-03-07T04:25:31;7.05;;;4.40;;
16862;SDS011;52193;48.216;-1.698;2024-03-07T04:27:58;6.00;;;4.60;;
16862;SDS011;52193;48.216;-1.698;2024-03-07T04:30:25;6.28;;;4.15;;
16862;SDS011;52193;48.216;-1.698;2024-03-07T04:32:52;6.38;;;4.05;;
16862;SDS011;52193;48.216;-1.698;2024-03-07T04:35:18;5.38;;;4.28;;
16862;SDS011;52193;48.216;-1.698;2024-03-07T04:37:46;6.13;;;4.30;;
16862;SDS011;52193;48.216;-1.698;2024-03-07T04:40:15;6.28;;;4.60;;
16862;SDS011;52193;48.216;-1.698;2024-03-07T04:42:42;8.27;;;4.40;;
16862;SDS011;52193;48.216;-1.698;2024-03-07T04:45:09;5.25;;;4.18;;
16862;SDS011;52193;48.216;-1.698;2024-03-07T04:47:38;6.28;;;4.40;;
16862;SDS011;52193;48.216;-1.698;2024-03-07T04:50:06;6.32;;;4.00;;
16862;SDS011;52193;48.216;-1.698;2024-03-07T04:52:35;5.15;;;4.18;;
16862;SDS011;52193;48.216;-1.698;2024-03-07T04:55:02;7.18;;;4.57;;
16862;SDS011;52193;48.216;-1.698;2024-03-07T04:57:31;6.38;;;4.25;;
16862;SDS011;52193;48.216;-1.698;2024-03-07T04:59:58;5.00;;;4.30;;
16862;SDS011;52193;48.216;-1.698;2024-03-07T05:02:25;5.88;;;4.55;;
16862;SDS011;52193;48.216;-1.698;2024-03-07T05:04:52;5.97;;;4.55;;
16862;SDS011;52193;48.216;-1.698;2024-03-07T05:07:19;6.95;;;4.90;;
16862;SDS011;52193;48.216;-1.698;2024-03-07T05:09:45;4.97;;;4.30;;
16862;SDS011;52193;48.216;-1.698;2024-03-07T05:12:13;4.35;;;3.85;;
16862;SDS011;52193;48.216;-1.698;2024-03-07T05:14:42;6.85;;;4.35;;
16862;SDS011;52193;48.216;-1.698;2024-03-07T05:17:09;5.20;;;4.60;;
16862;SDS011;52193;48.216;-1.698;2024-03-07T05:19:37;5.93;;;4.53;;
16862;SDS011;52193;48.216;-1.698;2024-03-07T05:22:04;5.07;;;4.35;;
16862;SDS011;52193;48.216;-1.698;2024-03-07T05:24:31;4.78;;;4.25;;
16862;SDS011;52193;48.216;-1.698;2024-03-07T05:26:59;7.78;;;4.47;;
16862;SDS011;52193;48.216;-1.698;2024-03-07T05:29:25;4.63;;;4.22;;
16862;SDS011;52193;48.216;-1.698;2024-03-07T05:31:54;5.47;;;4.57;;
16862;SDS011;52193;48.216;-1.698;2024-03-07T05:34:20;5.03;;;4.15;;
16862;SDS011;52193;48.216;-1.698;2024-03-07T05:36:48;4.78;;;4.07;;
16862;SDS011;52193;48.216;-1.698;2024-03-07T05:39:16;5.10;;;4.00;;
16862;SDS011;52193;48.216;-1.698;2024-03-07T05:41:44;4.72;;;3.58;;
16862;SDS011;52193;48.216;-1.698;2024-03-07T05:44:11;4.50;;;4.10;;
16862;SDS011;52193;48.216;-1.698;2024-03-07T05:46:38;5.93;;;4.07;;
16862;SDS011;52193;48.216;-1.698;2024-03-07T05:49:12;4.85;;;3.80;;
16862;SDS011;52193;48.216;-1.698;2024-03-07T05:51:39;5.93;;;4.10;;
16862;SDS011;52193;48.216;-1.698;2024-03-07T05:54:10;4.22;;;3.83;;
16862;SDS011;52193;48.216;-1.698;2024-03-07T05:56:38;5.00;;;4.50;;
16862;SDS011;52193;48.216;-1.698;2024-03-07T05:59:05;4.47;;;4.07;;
16862;SDS011;52193;48.216;-1.698;2024-03-07T06:01:34;5.05;;;4.15;;
16862;SDS011;52193;48.216;-1.698;2024-03-07T06:04:02;4.95;;;4.15;;
16862;SDS011;52193;48.216;-1.698;2024-03-07T06:06:32;4.50;;;3.80;;
16862;SDS011;52193;48.216;-1.698;2024-03-07T06:09:00;4.57;;;3.63;;
16862;SDS011;52193;48.216;-1.698;2024-03-07T06:11:32;4.07;;;3.70;;
16862;SDS011;52193;48.216;-1.698;2024-03-07T06:13:59;4.05;;;3.63;;
16862;SDS011;52193;48.216;-1.698;2024-03-07T06:16:27;4.63;;;3.97;;
16862;SDS011;52193;48.216;-1.698;2024-03-07T06:18:57;4.45;;;4.05;;
16862;SDS011;52193;48.216;-1.698;2024-03-07T06:21:25;4.40;;;4.00;;
16862;SDS011;52193;48.216;-1.698;2024-03-07T06:23:53;4.43;;;4.00;;
16862;SDS011;52193;48.216;-1.698;2024-03-07T06:26:24;4.20;;;3.80;;
16862;SDS011;52193;48.216;-1.698;2024-03-07T06:29:02;4.47;;;3.55;;
16862;SDS011;52193;48.216;-1.698;2024-03-07T06:31:30;5.22;;;4.07;;
16862;SDS011;52193;48.216;-1.698;2024-03-07T06:33:57;4.20;;;3.80;;
16862;SDS011;52193;48.216;-1.698;2024-03-07T06:36:24;4.90;;;3.95;;
16862;SDS011;52193;48.216;-1.698;2024-03-07T06:38:52;5.47;;;4.10;;
16862;SDS011;52193;48.216;-1.698;2024-03-07T06:41:19;5.57;;;3.75;;
16862;SDS011;52193;48.216;-1.698;2024-03-07T06:43:46;5.15;;;4.65;;
16862;SDS011;52193;48.216;-1.698;2024-03-07T06:46:14;3.90;;;3.40;;
16862;SDS011;52193;48.216;-1.698;2024-03-07T06:48:42;4.13;;;3.80;;
16862;SDS011;52193;48.216;-1.698;2024-03-07T06:51:09;4.03;;;3.60;;
16862;SDS011;52193;48.216;-1.698;2024-03-07T06:53:36;3.90;;;3.58;;
16862;SDS011;52193;48.216;-1.698;2024-03-07T06:56:05;4.32;;;3.78;;
16862;SDS011;52193;48.216;-1.698;2024-03-07T06:58:32;3.83;;;3.45;;
16862;SDS011;52193;48.216;-1.698;2024-03-07T07:00:59;5.28;;;3.65;;
16862;SDS011;52193;48.216;-1.698;2024-03-07T07:03:27;4.00;;;3.70;;
16862;SDS011;52193;48.216;-1.698;2024-03-07T07:05:54;3.83;;;3.47;;
16862;SDS011;52193;48.216;-1.698;2024-03-07T07:08:21;4.35;;;3.95;;
16862;SDS011;52193;48.216;-1.698;2024-03-07T07:10:48;4.93;;;3.63;;
16862;SDS011;52193;48.216;-1.698;2024-03-07T07:13:17;4.65;;;4.22;;
16862;SDS011;52193;48.216;-1.698;2024-03-07T07:15:43;4.40;;;4.00;;
16862;SDS011;52193;48.216;-1.698;2024-03-07T07:18:10;4.53;;;3.95;;
16862;SDS011;52193;48.216;-1.698;2024-03-07T07:20:38;4.40;;;3.80;;
16862;SDS011;52193;48.216;-1.698;2024-03-07T07:23:05;5.05;;;3.80;;
16862;SDS011;52193;48.216;-1.698;2024-03-07T07:38:46;4.38;;;4.05;;
16862;SDS011;52193;48.216;-1.698;2024-03-07T07:41:13;4.93;;;4.43;;
16862;SDS011;52193;48.216;-1.698;2024-03-07T07:43:40;5.22;;;3.92;;
16862;SDS011;52193;48.216;-1.698;2024-03-07T07:46:07;5.32;;;4.10;;
16862;SDS011;52193;48.216;-1.698;2024-03-07T07:48:34;4.20;;;3.80;;
16862;SDS011;52193;48.216;-1.698;2024-03-07T07:51:01;4.50;;;4.10;;
16862;SDS011;52193;48.216;-1.698;2024-03-07T07:53:30;4.75;;;4.28;;
16862;SDS011;52193;48.216;-1.698;2024-03-07T07:55:58;5.60;;;4.00;;
16862;SDS011;52193;48.216;-1.698;2024-03-07T07:58:25;4.25;;;3.67;;
16862;SDS011;52193;48.216;-1.698;2024-03-07T08:00:52;5.90;;;4.00;;
16862;SDS011;52193;48.216;-1.698;2024-03-07T08:03:19;4.70;;;4.20;;
16862;SDS011;52193;48.216;-1.698;2024-03-07T08:05:47;4.55;;;4.07;;
16862;SDS011;52193;48.216;-1.698;2024-03-07T08:08:14;6.43;;;4.13;;
16862;SDS011;52193;48.216;-1.698;2024-03-07T08:10:43;4.75;;;4.18;;
16862;SDS011;52193;48.216;-1.698;2024-03-07T08:13:12;4.68;;;4.25;;
16862;SDS011;52193;48.216;-1.698;2024-03-07T08:15:39;4.78;;;4.28;;
16862;SDS011;52193;48.216;-1.698;2024-03-07T08:18:06;5.35;;;4.25;;
16862;SDS011;52193;48.216;-1.698;2024-03-07T08:20:34;5.05;;;4.40;;
16862;SDS011;52193;48.216;-1.698;2024-03-07T08:23:02;4.85;;;4.13;;
16862;SDS011;52193;48.216;-1.698;2024-03-07T08:25:29;4.75;;;3.92;;
16862;SDS011;52193;48.216;-1.698;2024-03-07T08:27:56;5.88;;;4.00;;
16862;SDS011;52193;48.216;-1.698;2024-03-07T08:30:25;3.58;;;3.28;;
16862;SDS011;52193;48.216;-1.698;2024-03-07T08:32:54;3.92;;;3.58;;
16862;SDS011;52193;48.216;-1.698;2024-03-07T08:35:22;4.40;;;3.70;;
16862;SDS011;52193;48.216;-1.698;2024-03-07T08:37:49;3.63;;;3.33;;
16862;SDS011;52193;48.216;-1.698;2024-03-07T08:40:19;4.13;;;3.70;;
16862;SDS011;52193;48.216;-1.698;2024-03-07T08:42:47;3.80;;;3.50;;
16862;SDS011;52193;48.216;-1.698;2024-03-07T08:45:15;3.97;;;3.67;;
16862;SDS011;52193;48.216;-1.698;2024-03-07T08:47:45;5.22;;;3.63;;
16862;SDS011;52193;48.216;-1.698;2024-03-07T08:50:13;4.03;;;3.63;;
16862;SDS011;52193;48.216;-1.698;2024-03-07T08:52:43;3.60;;;3.30;;
16862;SDS011;52193;48.216;-1.698;2024-03-07T08:55:11;3.10;;;2.80;;
16862;SDS011;52193;48.216;-1.698;2024-03-07T08:57:39;4.55;;;3.47;;
16862;SDS011;52193;48.216;-1.698;2024-03-07T09:00:09;4.20;;;3.78;;
16862;SDS011;52193;48.216;-1.698;2024-03-07T09:02:41;3.42;;;3.00;;
16862;SDS011;52193;48.216;-1.698;2024-03-07T09:05:09;3.45;;;3.15;;
16862;SDS011;52193;48.216;-1.698;2024-03-07T09:07:36;3.53;;;3.22;;
16862;SDS011;52193;48.216;-1.698;2024-03-07T09:10:03;3.00;;;2.70;;
16862;SDS011;52193;48.216;-1.698;2024-03-07T09:12:32;3.60;;;3.13;;
16862;SDS011;52193;48.216;-1.698;2024-03-07T09:14:59;3.72;;;3.40;;
16862;SDS011;52193;48.216;-1.698;2024-03-07T09:17:26;3.67;;;2.83;;
16862;SDS011;52193;48.216;-1.698;2024-03-07T09:19:53;2.90;;;2.65;;
16862;SDS011;52193;48.216;-1.698;2024-03-07T09:22:21;3.17;;;2.67;;
16862;SDS011;52193;48.216;-1.698;2024-03-07T09:24:48;3.83;;;3.20;;
16862;SDS011;52193;48.216;-1.698;2024-03-07T09:27:15;3.75;;;2.85;;
16862;SDS011;52193;48.216;-1.698;2024-03-07T09:29:44;2.80;;;2.55;;
16862;SDS011;52193;48.216;-1.698;2024-03-07T09:32:12;3.63;;;2.70;;
16862;SDS011;52193;48.216;-1.698;2024-03-07T09:34:39;3.20;;;2.88;;
16862;SDS011;52193;48.216;-1.698;2024-03-07T09:37:06;4.70;;;2.70;;
16862;SDS011;52193;48.216;-1.698;2024-03-07T09:39:34;2.45;;;2.20;;
16862;SDS011;52193;48.216;-1.698;2024-03-07T09:42:02;3.60;;;2.50;;
16862;SDS011;52193;48.216;-1.698;2024-03-07T09:44:29;3.40;;;2.33;;
16862;SDS011;52193;48.216;-1.698;2024-03-07T09:46:59;2.92;;;2.20;;
16862;SDS011;52193;48.216;-1.698;2024-03-07T09:49:28;2.80;;;2.13;;
16862;SDS011;52193;48.216;-1.698;2024-03-07T09:51:55;3.95;;;2.53;;
16862;SDS011;52193;48.216;-1.698;2024-03-07T09:54:25;2.92;;;2.42;;
16862;SDS011;52193;48.216;-1.698;2024-03-07T09:56:54;2.63;;;2.40;;
16862;SDS011;52193;48.216;-1.698;2024-03-07T09:59:24;2.85;;;2.53;;
16862;SDS011;52193;48.216;-1.698;2024-03-07T10:01:53;2.97;;;2.47;;
16862;SDS011;52193;48.216;-1.698;2024-03-07T10:04:24;4.20;;;2.30;;
16862;SDS011;52193;48.216;-1.698;2024-03-07T10:06:55;2.67;;;2.47;;
16862;SDS011;52193;48.216;-1.698;2024-03-07T10:09:23;3.03;;;2.20;;
16862;SDS011;52193;48.216;-1.698;2024-03-07T10:11:58;2.95;;;2.20;;
16862;SDS011;52193;48.216;-1.698;2024-03-07T10:14:27;2.17;;;1.92;;
16862;SDS011;52193;48.216;-1.698;2024-03-07T10:16:58;2.97;;;2.10;;
16862;SDS011;52193;48.216;-1.698;2024-03-07T10:19:25;3.58;;;2.00;;
16862;SDS011;52193;48.216;-1.698;2024-03-07T10:21:54;2.17;;;1.98;;
16862;SDS011;52193;48.216;-1.698;2024-03-07T10:24:24;2.40;;;1.95;;
16862;SDS011;52193;48.216;-1.698;2024-03-07T10:26:52;3.42;;;1.98;;
16862;SDS011;52193;48.216;-1.698;2024-03-07T10:29:22;3.78;;;1.92;;
16862;SDS011;52193;48.216;-1.698;2024-03-07T10:31:50;2.75;;;1.70;;
16862;SDS011;52193;48.216;-1.698;2024-03-07T10:34:17;2.00;;;1.80;;
16862;SDS011;52193;48.216;-1.698;2024-03-07T10:36:45;2.30;;;2.00;;
16862;SDS011;52193;48.216;-1.698;2024-03-07T10:39:12;2.88;;;1.88;;
16862;SDS011;52193;48.216;-1.698;2024-03-07T10:41:42;1.98;;;1.80;;
16862;SDS011;52193;48.216;-1.698;2024-03-07T10:44:18;2.60;;;1.65;;
16862;SDS011;52193;48.216;-1.698;2024-03-07T10:46:52;2.90;;;1.90;;
16862;SDS011;52193;48.216;-1.698;2024-03-07T10:49:25;3.17;;;1.80;;
16862;SDS011;52193;48.216;-1.698;2024-03-07T10:51:57;2.13;;;1.60;;
16862;SDS011;52193;48.216;-1.698;2024-03-07T10:54:33;2.55;;;1.45;;
16862;SDS011;52193;48.216;-1.698;2024-03-07T10:57:13;2.30;;;1.63;;
16862;SDS011;52193;48.216;-1.698;2024-03-07T10:59:49;1.67;;;1.45;;
16862;SDS011;52193;48.216;-1.698;2024-03-07T11:02:20;1.48;;;1.38;;
16862;SDS011;52193;48.216;-1.698;2024-03-07T11:04:54;2.05;;;1.52;;
16862;SDS011;52193;48.216;-1.698;2024-03-07T11:07:22;3.17;;;1.88;;
16862;SDS011;52193;48.216;-1.698;2024-03-07T11:09:50;2.13;;;1.48;;
16862;SDS011;52193;48.216;-1.698;2024-03-07T11:12:18;1.85;;;1.70;;
16862;SDS011;52193;48.216;-1.698;2024-03-07T11:14:47;1.83;;;1.52;;
16862;SDS011;52193;48.216;-1.698;2024-03-07T11:17:17;1.85;;;1.27;;
16862;SDS011;52193;48.216;-1.698;2024-03-07T11:19:45;2.22;;;1.60;;
16862;SDS011;52193;48.216;-1.698;2024-03-07T11:22:27;3.30;;;1.50;;
16862;SDS011;52193;48.216;-1.698;2024-03-07T11:25:00;1.95;;;1.52;;
16862;SDS011;52193;48.216;-1.698;2024-03-07T11:27:31;1.52;;;1.30;;
16862;SDS011;52193;48.216;-1.698;2024-03-07T11:30:04;2.80;;;1.40;;
16862;SDS011;52193;48.216;-1.698;2024-03-07T11:32:33;1.50;;;1.40;;
16862;SDS011;52193;48.216;-1.698;2024-03-07T11:35:03;3.55;;;1.60;;
16862;SDS011;52193;48.216;-1.698;2024-03-07T11:37:39;1.65;;;1.33;;
16862;SDS011;52193;48.216;-1.698;2024-03-07T11:40:09;2.00;;;1.33;;
16862;SDS011;52193;48.216;-1.698;2024-03-07T11:42:43;1.77;;;1.10;;
16862;SDS011;52193;48.216;-1.698;2024-03-07T11:45:12;1.50;;;1.40;;
16862;SDS011;52193;48.216;-1.698;2024-03-07T11:47:50;2.17;;;1.30;;
16862;SDS011;52193;48.216;-1.698;2024-03-07T11:50:24;2.30;;;1.35;;
16862;SDS011;52193;48.216;-1.698;2024-03-07T11:52:52;1.35;;;1.25;;
16862;SDS011;52193;48.216;-1.698;2024-03-07T11:55:19;3.20;;;1.52;;
16862;SDS011;52193;48.216;-1.698;2024-03-07T11:57:47;4.68;;;1.65;;
16862;SDS011;52193;48.216;-1.698;2024-03-07T12:00:17;1.52;;;1.35;;
16862;SDS011;52193;48.216;-1.698;2024-03-07T12:02:44;1.52;;;1.38;;
16862;SDS011;52193;48.216;-1.698;2024-03-07T12:05:13;2.65;;;1.50;;
16862;SDS011;52193;48.216;-1.698;2024-03-07T12:07:43;1.67;;;1.58;;
16862;SDS011;52193;48.216;-1.698;2024-03-07T12:10:10;2.35;;;1.52;;
16862;SDS011;52193;48.216;-1.698;2024-03-07T12:12:37;2.00;;;1.80;;
16862;SDS011;52193;48.216;-1.698;2024-03-07T12:15:04;2.45;;;1.55;;
16862;SDS011;52193;48.216;-1.698;2024-03-07T12:17:40;1.42;;;1.33;;
16862;SDS011;52193;48.216;-1.698;2024-03-07T12:20:07;3.78;;;1.48;;
16862;SDS011;52193;48.216;-1.698;2024-03-07T12:22:51;1.92;;;1.40;;
16862;SDS011;52193;48.216;-1.698;2024-03-07T12:25:19;1.77;;;1.27;;
16862;SDS011;52193;48.216;-1.698;2024-03-07T12:27:58;1.80;;;1.65;;
16862;SDS011;52193;48.216;-1.698;2024-03-07T12:30:28;1.60;;;1.40;;
16862;SDS011;52193;48.216;-1.698;2024-03-07T12:32:58;1.58;;;1.20;;
16862;SDS011;52193;48.216;-1.698;2024-03-07T12:35:25;1.58;;;1.48;;
16862;SDS011;52193;48.216;-1.698;2024-03-07T12:37:53;1.58;;;1.45;;
16862;SDS011;52193;48.216;-1.698;2024-03-07T12:40:21;1.30;;;1.20;;
16862;SDS011;52193;48.216;-1.698;2024-03-07T12:42:50;1.83;;;1.38;;
16862;SDS011;52193;48.216;-1.698;2024-03-07T12:45:18;2.22;;;1.50;;
16862;SDS011;52193;48.216;-1.698;2024-03-07T12:47:46;1.38;;;1.27;;
16862;SDS011;52193;48.216;-1.698;2024-03-07T12:50:15;3.05;;;1.30;;
16862;SDS011;52193;48.216;-1.698;2024-03-07T12:52:45;1.27;;;1.17;;
16862;SDS011;52193;48.216;-1.698;2024-03-07T12:55:16;2.17;;;1.60;;
16862;SDS011;52193;48.216;-1.698;2024-03-07T12:57:46;1.38;;;1.27;;
16862;SDS011;52193;48.216;-1.698;2024-03-07T13:00:15;1.80;;;1.48;;
16862;SDS011;52193;48.216;-1.698;2024-03-07T13:02:46;2.03;;;1.45;;
16862;SDS011;52193;48.216;-1.698;2024-03-07T13:05:13;2.42;;;1.45;;
16862;SDS011;52193;48.216;-1.698;2024-03-07T13:07:47;2.15;;;1.33;;
16862;SDS011;52193;48.216;-1.698;2024-03-07T13:10:15;1.42;;;1.10;;
16862;SDS011;52193;48.216;-1.698;2024-03-07T13:12:43;1.30;;;1.20;;
16862;SDS011;52193;48.216;-1.698;2024-03-07T13:15:11;1.10;;;1.10;;
16862;SDS011;52193;48.216;-1.698;2024-03-07T13:17:38;2.35;;;1.20;;
16862;SDS011;52193;48.216;-1.698;2024-03-07T13:20:08;1.67;;;1.10;;
16862;SDS011;52193;48.216;-1.698;2024-03-07T13:22:40;1.48;;;1.23;;
16862;SDS011;52193;48.216;-1.698;2024-03-07T13:25:08;1.58;;;1.05;;
16862;SDS011;52193;48.216;-1.698;2024-03-07T13:27:43;1.45;;;1.20;;
16862;SDS011;52193;48.216;-1.698;2024-03-07T13:30:16;1.92;;;1.23;;
16862;SDS011;52193;48.216;-1.698;2024-03-07T13:32:52;2.80;;;1.20;;
16862;SDS011;52193;48.216;-1.698;2024-03-07T13:35:20;1.25;;;1.15;;
16862;SDS011;52193;48.216;-1.698;2024-03-07T13:37:48;1.50;;;1.40;;
16862;SDS011;52193;48.216;-1.698;2024-03-07T13:40:16;1.52;;;1.42;;
16862;SDS011;52193;48.216;-1.698;2024-03-07T13:42:50;1.50;;;1.20;;
16862;SDS011;52193;48.216;-1.698;2024-03-07T13:45:19;1.35;;;1.08;;
16862;SDS011;52193;48.216;-1.698;2024-03-07T13:47:48;1.10;;;1.00;;
16862;SDS011;52193;48.216;-1.698;2024-03-07T13:50:15;2.42;;;1.23;;
16862;SDS011;52193;48.216;-1.698;2024-03-07T13:52:44;1.67;;;1.58;;
16862;SDS011;52193;48.216;-1.698;2024-03-07T13:55:30;1.70;;;1.60;;
16862;SDS011;52193;48.216;-1.698;2024-03-07T13:58:02;1.23;;;1.13;;
16862;SDS011;52193;48.216;-1.698;2024-03-07T14:00:41;1.60;;;1.50;;
16862;SDS011;52193;48.216;-1.698;2024-03-07T14:03:41;1.48;;;1.42;;
16862;SDS011;52193;48.216;-1.698;2024-03-07T14:06:38;31.30;;;26.63;;
16862;SDS011;52193;48.216;-1.698;2024-03-07T14:12:21;28.55;;;23.05;;
16862;SDS011;52193;48.216;-1.698;2024-03-07T14:18:12;3.88;;;3.58;;
16862;SDS011;52193;48.216;-1.698;2024-03-07T14:21:11;4.18;;;3.78;;
16862;SDS011;52193;48.216;-1.698;2024-03-07T14:27:15;2.95;;;2.65;;
16862;SDS011;52193;48.216;-1.698;2024-03-07T14:29:49;1.77;;;1.50;;
16862;SDS011;52193;48.216;-1.698;2024-03-07T14:32:24;1.75;;;1.20;;
16862;SDS011;52193;48.216;-1.698;2024-03-07T14:34:58;1.40;;;1.30;;
16862;SDS011;52193;48.216;-1.698;2024-03-07T14:37:31;1.02;;;1.02;;
16862;SDS011;52193;48.216;-1.698;2024-03-07T14:40:07;1.98;;;1.17;;
16862;SDS011;52193;48.216;-1.698;2024-03-07T14:42:36;1.05;;;1.05;;
16862;SDS011;52193;48.216;-1.698;2024-03-07T14:45:08;1.20;;;0.93;;
16862;SDS011;52193;48.216;-1.698;2024-03-07T14:47:41;1.30;;;1.20;;
16862;SDS011;52193;48.216;-1.698;2024-03-07T14:50:10;2.60;;;1.20;;
16862;SDS011;52193;48.216;-1.698;2024-03-07T14:52:37;1.20;;;1.10;;
16862;SDS011;52193;48.216;-1.698;2024-03-07T14:55:06;1.27;;;1.17;;
16862;SDS011;52193;48.216;-1.698;2024-03-07T14:57:34;1.98;;;1.25;;
16862;SDS011;52193;48.216;-1.698;2024-03-07T15:00:01;2.72;;;1.67;;
16862;SDS011;52193;48.216;-1.698;2024-03-07T15:02:33;1.85;;;1.60;;
16862;SDS011;52193;48.216;-1.698;2024-03-07T15:05:02;1.63;;;1.30;;
16862;SDS011;52193;48.216;-1.698;2024-03-07T15:07:32;2.15;;;1.30;;